XRY weather

Jerez Airport
Jerez de la Forntera, AndalucĂ­a, Spain

Public forecast

Using degrees Celsius for public forecast. Weather courtesy of forecast.io.

METAR (pilot weather report)

Retrieved 2018/12/18 14:30 UTC (26 minutes ago):

LEJR 181430Z 17010KT 120V200 CAVOK 20/13 Q1022

TAF (pilot weather forecast)

Retrieved 2018/12/18 12:27 UTC (2 hours ago):

TAF LEJR 181100Z 1812/1912 18009KT CAVOK TX20/1814Z TN12/1822Z PROB40 TEMPO 1822/1912 4000 RA BR BKN010